Time;durP1;ratioP1;P1;durP2;ratioP2;P2;SDS_P1;SDS_P2;PMS_P1;PMS_P2;Temp;Humidity;BMP_temperature;BMP_pressure;BME280_temperature;BME280_humidity;BME280_pressure;Samples;Min_cycle;Max_cycle;Signal;HPM_P1;HPM_P2
2022/10/19 05:54:03;;;;;;;;;12.00;11.75;;;;;15.32;75.82;101889.97;2551702;23;45985;-94
2022/10/19 05:55:13;;;;;;;;;19.25;17.50;;;;;15.31;75.53;101889.09;2392701;28;45853;-94
2022/10/19 05:56:26;;;;;;;;;15.50;11.25;;;;;15.34;75.56;101888.13;2389392;28;45337;-94
2022/10/19 05:57:37;;;;;;;;;16.75;11.50;;;;;15.32;75.46;101884.69;2395329;28;44617;-94
2022/10/19 05:58:48;;;;;;;;;13.00;11.50;;;;;15.33;75.49;101887.28;2393597;28;46792;-93
2022/10/19 05:59:58;;;;;;;;;12.00;10.25;;;;;15.33;75.52;101884.63;2387586;28;45322;-95
2022/10/19 06:01:09;;;;;;;;;13.25;10.75;;;;;15.33;75.46;101886.41;2394291;28;48420;-93
2022/10/19 06:02:19;;;;;;;;;10.75;9.25;;;;;15.32;75.53;101892.63;2396792;28;45443;-94
2022/10/19 06:03:30;;;;;;;;;14.75;9.75;;;;;15.32;75.82;101896.13;2397222;28;47125;-94
2022/10/19 06:04:40;;;;;;;;;14.75;10.25;;;;;15.34;75.57;101894.31;2387212;28;45187;-94
2022/10/19 06:05:52;;;;;;;;;11.50;10.25;;;;;15.34;75.33;101901.38;2387195;28;48373;-93
2022/10/19 06:07:02;;;;;;;;;14.50;11.50;;;;;15.34;75.54;101896.94;2384691;28;44807;-94
2022/10/19 06:08:12;;;;;;;;;12.25;10.50;;;;;15.32;75.42;101892.63;2392151;28;46710;-94
2022/10/19 06:09:23;;;;;;;;;16.00;9.25;;;;;15.34;75.24;101896.06;2393546;28;44709;-94
2022/10/19 06:10:33;;;;;;;;;12.50;10.75;;;;;15.33;75.40;101895.22;2396363;28;45507;-92
2022/10/19 06:11:44;;;;;;;;;18.50;15.00;;;;;15.34;75.67;101899.59;2396182;28;45246;-94
2022/10/19 06:12:54;;;;;;;;;14.00;12.75;;;;;15.33;75.39;101899.66;2386848;28;47247;-90
2022/10/19 06:14:07;;;;;;;;;13.50;13.50;;;;;15.34;75.47;101894.31;2386514;28;45416;-92
2022/10/19 06:15:18;;;;;;;;;18.00;13.00;;;;;15.32;75.28;101897.91;2387798;28;47353;-94
2022/10/19 06:16:30;;;;;;;;;12.25;11.75;;;;;15.34;75.39;101901.38;2394058;28;45223;-94
2022/10/19 06:17:40;;;;;;;;;13.25;10.50;;;;;15.33;75.39;101894.38;2382271;28;47505;-88
2022/10/19 06:18:52;;;;;;;;;12.75;10.50;;;;;15.32;75.43;101893.50;2387402;28;44574;-87
2022/10/19 06:20:03;;;;;;;;;12.25;12.25;;;;;15.32;75.52;101887.31;2394695;28;46556;-93
2022/10/19 06:21:17;;;;;;;;;17.75;12.25;;;;;15.33;75.59;101900.53;2402040;28;45415;-92
2022/10/19 06:22:27;;;;;;;;;11.75;11.50;;;;;15.30;75.53;101903.28;2393736;28;47227;-92
2022/10/19 06:23:38;;;;;;;;;18.25;15.75;;;;;15.30;75.51;101895.34;2393531;28;45332;-92
2022/10/19 06:24:49;;;;;;;;;15.25;13.50;;;;;15.30;75.63;101895.34;2393833;28;47055;-92
2022/10/19 06:26:09;;;;;;;;;4.00;4.00;;;;;15.28;75.43;101895.38;2393984;28;45473;-92
2022/10/19 06:27:19;;;;;;;;;11.75;11.50;;;;;15.31;75.57;101897.03;2401577;28;47525;-92
2022/10/19 06:28:29;;;;;;;;;17.25;13.00;;;;;15.32;75.78;101897.91;2406799;28;44622;-92
2022/10/19 06:29:40;;;;;;;;;12.50;12.50;;;;;15.33;75.60;101897.00;2393847;28;47295;-92
2022/10/19 06:30:50;;;;;;;;;16.50;13.75;;;;;15.34;75.58;101898.72;2387234;28;44655;-92
2022/10/19 06:32:00;;;;;;;;;11.50;11.25;;;;;15.33;75.42;101900.53;2396751;28;46607;-92
2022/10/19 06:33:11;;;;;;;;;17.25;14.00;;;;;15.34;75.94;101898.72;2403497;28;44642;-92
2022/10/19 06:34:21;;;;;;;;;16.00;13.50;;;;;15.34;75.83;101896.94;2393764;28;46958;-92
2022/10/19 06:35:32;;;;;;;;;15.50;14.75;;;;;15.35;75.73;101895.16;2396514;28;44625;-93
2022/10/19 06:36:42;;;;;;;;;16.25;12.25;;;;;15.34;75.80;101889.00;2401679;28;45420;-92
2022/10/19 06:37:56;;;;;;;;;12.25;12.25;;;;;15.38;75.67;101903.03;2393984;28;45155;-91
2022/10/19 06:39:06;;;;;;;;;18.00;13.75;;;;;15.37;75.79;101896.84;2378337;28;47278;-92
2022/10/19 06:40:16;;;;;;;;;14.75;12.25;;;;;15.38;75.66;101897.72;2386007;28;45314;-92
2022/10/19 06:41:28;;;;;;;;;16.75;14.75;;;;;15.40;75.79;101901.19;2393365;28;48785;-88
2022/10/19 06:42:39;;;;;;;;;10.75;9.75;;;;;15.41;75.16;101897.59;2387818;28;45255;-89
2022/10/19 06:43:51;;;;;;;;;13.25;12.75;;;;;15.42;75.70;101894.03;2387861;28;48282;-88
2022/10/19 06:45:01;;;;;;;;;17.50;17.00;;;;;15.42;75.74;101894.03;2388664;28;45275;-88
2022/10/19 06:46:16;;;;;;;;;15.25;12.50;;;;;15.44;75.78;101897.50;2396497;28;47976;-88
2022/10/19 06:47:31;;;;;;;;;16.75;14.75;;;;;15.44;75.84;101886.91;2394964;28;45330;-88
2022/10/19 06:48:42;;;;;;;;;16.75;13.75;;;;;15.46;75.81;101893.00;2389411;28;47430;-88
2022/10/19 06:49:52;;;;;;;;;16.50;12.25;;;;;15.48;75.90;101893.81;2398750;28;45179;-89
2022/10/19 06:51:05;;;;;;;;;14.50;13.50;;;;;15.51;75.85;101892.84;2395784;28;47204;-88
2022/10/19 06:52:15;;;;;;;;;14.75;11.50;;;;;15.51;75.68;101893.72;2389023;28;44758;-89
2022/10/19 06:53:27;;;;;;;;;15.50;12.75;;;;;15.53;75.94;101893.66;2389082;28;47410;-88
2022/10/19 06:54:38;;;;;;;;;16.00;14.75;;;;;15.53;75.97;101889.22;2389077;28;45240;-90
2022/10/19 06:55:48;;;;;;;;;16.00;14.25;;;;;15.56;75.68;101898.84;2388551;28;47866;-92
2022/10/19 06:56:59;;;;;;;;;12.75;11.75;;;;;15.55;75.91;101896.25;2394527;28;45191;-93
2022/10/19 06:58:09;;;;;;;;;15.75;12.25;;;;;15.56;75.91;101901.50;2399934;28;45194;-92
2022/10/19 06:59:20;;;;;;;;;16.75;15.75;;;;;15.57;76.04;101894.41;2405623;28;45158;-92
2022/10/19 07:00:30;;;;;;;;;12.25;12.25;;;;;15.56;75.80;101895.31;2404309;28;46249;-91
2022/10/19 07:01:40;;;;;;;;;12.75;12.50;;;;;15.58;75.94;101894.34;2405027;28;44587;-93
2022/10/19 07:02:51;;;;;;;;;16.50;15.25;;;;;15.59;75.72;101896.09;2403039;28;46918;-92
2022/10/19 07:04:01;;;;;;;;;14.25;12.00;;;;;15.61;76.00;101898.66;2401346;28;45324;-93
2022/10/19 07:05:12;;;;;;;;;14.75;12.25;;;;;15.61;75.92;101888.94;2405297;28;46921;-92
2022/10/19 07:06:22;;;;;;;;;12.50;11.50;;;;;15.61;75.96;101894.25;2398470;28;44597;-93
2022/10/19 07:07:34;;;;;;;;;13.75;12.50;;;;;15.64;76.31;101882.66;2393777;28;47104;-93
2022/10/19 07:08:44;;;;;;;;;15.00;14.00;;;;;15.67;76.92;101882.56;2397764;28;45317;-93
2022/10/19 07:09:55;;;;;;;;;19.75;14.50;;;;;15.69;76.98;101879.84;2394394;28;48249;-93
2022/10/19 07:11:07;;;;;;;;;16.25;13.25;;;;;15.72;77.18;101887.69;2395697;28;44676;-93
2022/10/19 07:12:18;;;;;;;;;15.50;15.50;;;;;15.74;76.80;101888.50;2391785;28;48679;-93
2022/10/19 07:13:29;;;;;;;;;15.50;13.00;;;;;15.79;76.92;101885.69;2386836;28;45264;-93
2022/10/19 07:14:39;;;;;;;;;15.50;11.75;;;;;15.80;76.55;101887.41;2396127;28;47397;-93
2022/10/19 07:15:57;;;;;;;;;16.75;13.00;;;;;15.85;76.72;101880.16;2396273;28;45189;-93
2022/10/19 07:17:09;;;;;;;;;14.50;10.75;;;;;15.86;76.84;101877.44;2393519;28;48406;-93
2022/10/19 07:18:19;;;;;;;;;19.00;15.25;;;;;15.90;76.92;101882.63;2396289;28;45440;-92
2022/10/19 07:19:31;;;;;;;;;17.75;14.00;;;;;15.94;77.21;101873.63;2393523;28;48282;-93
2022/10/19 07:20:41;;;;;;;;;20.00;15.25;;;;;15.95;77.18;101870.09;2393644;28;44743;-92
2022/10/19 07:21:51;;;;;;;;;16.50;13.75;;;;;16.01;77.75;101874.25;2390282;28;45416;-92
2022/10/19 07:23:02;;;;;;;;;17.75;12.75;;;;;16.02;77.22;101873.34;2397726;28;45214;-92
2022/10/19 07:24:12;;;;;;;;;16.75;16.75;;;;;16.06;77.33;101869.69;2397799;28;45987;-92
2022/10/19 07:25:22;;;;;;;;;12.50;8.75;;;;;16.12;76.81;101861.50;2397907;28;45305;-93
2022/10/19 07:26:33;;;;;;;;;15.25;14.50;;;;;16.14;76.89;101862.31;2388210;28;47059;-93
2022/10/19 07:27:43;;;;;;;;;11.25;11.25;;;;;16.17;76.96;101862.16;2396326;28;44784;-92
2022/10/19 07:28:56;;;;;;;;;13.50;12.00;;;;;16.21;76.85;101865.59;2393043;28;47134;-92
2022/10/19 07:30:06;;;;;;;;;16.25;11.00;;;;;16.25;76.93;101869.00;2388947;28;45381;-92
2022/10/19 07:31:19;;;;;;;;;12.50;12.50;;;;;16.30;77.08;101872.31;2386143;28;48162;-92
2022/10/19 07:32:30;;;;;;;;;15.75;14.50;;;;;16.31;76.90;101866.09;2396553;28;45207;-92
2022/10/19 07:33:40;;;;;;;;;9.75;8.00;;;;;16.35;76.71;101878.28;2393376;28;47313;-91
2022/10/19 07:34:50;;;;;;;;;13.75;12.75;;;;;16.36;76.82;101866.78;2386374;28;45289;-91
2022/10/19 07:36:02;;;;;;;;;13.50;12.00;;;;;16.41;77.11;101878.06;2389631;28;46683;-92
2022/10/19 07:37:13;;;;;;;;;15.25;13.00;;;;;16.44;77.00;101870.91;2396623;28;45251;-91
2022/10/19 07:38:23;;;;;;;;;14.75;13.25;;;;;16.48;77.20;101872.50;2400887;28;47167;-92
2022/10/19 07:39:33;;;;;;;;;13.25;13.25;;;;;16.49;76.73;101875.13;2393402;28;45424;-91
2022/10/19 07:40:43;;;;;;;;;17.00;14.25;;;;;16.51;76.65;101875.91;2395497;28;46305;-90
2022/10/19 07:41:54;;;;;;;;;20.00;15.25;;;;;16.56;76.90;101875.72;2403551;28;45325;-90
2022/10/19 07:43:04;;;;;;;;;14.25;12.25;;;;;16.58;77.18;101867.69;2392941;28;51463;-91
2022/10/19 07:44:15;;;;;;;;;15.75;13.25;;;;;16.63;76.80;101871.91;2396206;28;45355;-90
2022/10/19 07:45:25;;;;;;;;;16.25;13.00;;;;;16.68;76.94;101873.50;2402910;28;45553;-90
2022/10/19 07:46:36;;;;;;;;;11.50;9.25;;;;;16.72;76.80;101872.44;2403550;28;45166;-90
2022/10/19 07:47:46;;;;;;;;;20.00;17.75;;;;;16.75;77.07;101864.34;2399035;28;45359;-91
2022/10/19 07:48:56;;;;;;;;;19.75;17.50;;;;;16.79;76.85;101865.94;2384028;28;45308;-91
2022/10/19 07:50:07;;;;;;;;;18.00;11.75;;;;;16.82;76.68;101857.84;2392449;28;47579;-91
2022/10/19 07:51:18;;;;;;;;;21.75;16.50;;;;;16.88;76.53;101870.00;2395854;28;45386;-91
2022/10/19 07:52:29;;;;;;;;;17.50;15.00;;;;;16.89;76.68;101869.06;2393024;28;46961;-90
2022/10/19 07:53:40;;;;;;;;;19.50;13.25;;;;;16.94;76.67;101868.91;2385073;28;44776;-91
2022/10/19 07:54:51;;;;;;;;;15.00;11.75;;;;;16.95;76.93;101866.19;2395761;28;45402;-90
2022/10/19 07:56:07;;;;;;;;;19.25;18.25;;;;;16.99;76.68;101869.56;2391553;28;45479;-89
2022/10/19 07:57:17;;;;;;;;;13.25;11.50;;;;;17.03;76.39;101871.16;2396373;28;45500;-91
2022/10/19 07:58:27;;;;;;;;;8.75;8.75;;;;;17.06;76.38;101876.31;2392677;28;45462;-90
2022/10/19 07:59:38;;;;;;;;;12.50;7.75;;;;;17.09;76.33;101862.94;2385416;28;47259;-90
2022/10/19 08:00:48;;;;;;;;;12.50;11.50;;;;;17.15;76.63;101876.88;2385279;28;45365;-90
2022/10/19 08:02:01;;;;;;;;;11.50;9.25;;;;;17.18;76.39;101871.47;2392697;28;46312;-91
2022/10/19 08:03:11;;;;;;;;;12.25;10.25;;;;;17.23;76.39;101868.63;2389902;28;44655;-91
2022/10/19 08:04:22;;;;;;;;;10.50;10.25;;;;;17.27;76.34;101863.09;2395813;28;46341;-90
2022/10/19 08:05:33;;;;;;;;;9.50;8.25;;;;;17.31;75.70;101867.34;2403145;28;45379;-91
2022/10/19 08:06:43;;;;;;;;;13.75;12.25;;;;;17.34;76.28;101861.03;2403138;28;46329;-90
2022/10/19 08:07:54;;;;;;;;;16.50;10.50;;;;;17.35;75.98;101860.09;2403318;28;44700;-91
2022/10/19 08:09:05;;;;;;;;;12.75;11.75;;;;;17.38;76.01;101856.47;2392427;28;48288;-91
2022/10/19 08:10:15;;;;;;;;;12.00;11.00;;;;;17.42;76.02;101855.38;2383673;28;45392;-91
2022/10/19 08:11:29;;;;;;;;;7.00;7.00;;;;;17.48;75.60;101851.59;2390242;28;47201;-92
2022/10/19 08:12:39;;;;;;;;;9.50;9.50;;;;;17.51;75.47;101857.63;2401756;28;45459;-90
2022/10/19 08:13:50;;;;;;;;;9.50;9.50;;;;;17.55;75.69;101858.34;2391166;28;46805;-91
2022/10/19 08:15:00;;;;;;;;;12.50;9.00;;;;;17.59;75.43;101864.38;2389653;28;45321;-92
2022/10/19 08:16:21;;;;;;;;;13.25;9.25;;;;;17.63;74.74;101872.16;2385171;28;47332;-88
2022/10/19 08:17:35;;;;;;;;;10.00;8.75;;;;;17.68;75.02;101871.09;2388667;28;45256;-88
2022/10/19 08:18:46;;;;;;;;;11.50;9.75;;;;;17.71;74.90;101868.28;2394935;28;45409;-89
2022/10/19 08:19:56;;;;;;;;;17.00;12.50;;;;;17.74;74.74;101863.69;2393096;28;45150;-88
2022/10/19 08:21:06;;;;;;;;;11.00;9.25;;;;;17.78;74.49;101869.72;2386744;28;48062;-88
2022/10/19 08:22:17;;;;;;;;;16.75;13.50;;;;;17.82;74.98;101865.16;2396215;28;44779;-89
2022/10/19 08:23:27;;;;;;;;;14.00;10.50;;;;;17.83;74.51;101864.22;2387674;28;47031;-90
2022/10/19 08:24:37;;;;;;;;;9.75;9.75;;;;;17.85;74.79;101865.00;2392947;28;45183;-87
2022/10/19 08:25:49;;;;;;;;;8.00;7.25;;;;;17.88;74.25;101865.72;2403729;28;46852;-89
2022/10/19 08:27:01;;;;;;;;;9.50;9.50;;;;;17.87;74.34;101858.69;2393601;28;45332;-88
2022/10/19 08:28:11;;;;;;;;;12.00;8.75;;;;;17.93;74.18;101857.53;2395247;28;46459;-89
2022/10/19 08:29:22;;;;;;;;;16.25;12.50;;;;;17.94;75.25;101855.72;2392273;28;45207;-91
2022/10/19 08:30:36;;;;;;;;;13.50;9.50;;;;;17.96;74.43;101848.53;2395678;28;45968;-93
2022/10/19 08:31:47;;;;;;;;;10.75;7.75;;;;;18.00;74.19;101856.28;2402273;28;45391;-92
2022/10/19 08:32:58;;;;;;;;;10.50;10.00;;;;;18.01;74.60;101846.53;2389034;28;48268;-92
2022/10/19 08:34:08;;;;;;;;;9.75;9.75;;;;;18.08;74.64;101849.75;2391243;28;45406;-90
2022/10/19 08:35:19;;;;;;;;;11.25;9.75;;;;;18.12;74.29;101851.34;2392970;28;47394;-92
2022/10/19 08:36:31;;;;;;;;;13.75;9.25;;;;;18.15;73.74;101845.88;2393238;28;45285;-92
2022/10/19 08:37:41;;;;;;;;;12.25;12.25;;;;;18.22;74.34;101841.16;2398262;28;45571;-92
2022/10/19 08:38:52;;;;;;;;;13.00;9.50;;;;;18.27;74.26;101851.59;2391718;28;45322;-91
2022/10/19 08:40:03;;;;;;;;;15.50;12.75;;;;;18.30;74.59;101848.75;2392455;28;47914;-91
2022/10/19 08:41:23;;;;;;;;;18.75;12.00;;;;;18.36;73.85;101847.59;2395906;28;44710;-92
2022/10/19 08:42:46;;;;;;;;;13.25;11.00;;;;;18.41;73.36;101846.47;2392074;28;47135;-91
2022/10/19 08:44:12;;;;;;;;;14.00;9.50;;;;;18.44;73.57;101846.31;2384642;28;44696;-90
2022/10/19 08:45:57;;;;;;;;;10.50;10.50;;;;;18.50;73.23;101846.91;2388025;28;47320;-90
2022/10/19 08:47:30;;;;;;;;;8.25;8.25;;;;;18.55;73.07;101847.56;2383118;28;45393;-92
2022/10/19 08:48:42;;;;;;;;;12.75;10.25;;;;;18.58;73.37;101842.09;2392674;28;46348;-91
2022/10/19 08:49:53;;;;;;;;;11.25;9.00;;;;;18.60;73.29;101837.53;2386859;28;45259;-90
2022/10/19 08:51:08;;;;;;;;;10.50;10.50;;;;;18.64;73.14;101839.09;2399713;28;45499;-91
2022/10/19 08:52:21;;;;;;;;;12.50;11.50;;;;;18.67;73.73;101835.44;2402741;28;45497;-91
2022/10/19 08:53:44;;;;;;;;;11.25;9.75;;;;;18.71;73.24;101836.16;2392021;28;47248;-91
2022/10/19 08:55:01;;;;;;;;;8.00;8.00;;;;;18.74;73.05;101836.00;2396726;28;45540;-90
2022/10/19 08:56:26;;;;;;;;;11.25;10.25;;;;;18.77;72.88;101842.03;2384778;28;47999;-91
2022/10/19 08:58:02;;;;;;;;;13.00;9.00;;;;;18.80;72.94;101846.34;2384962;28;45468;-91
2022/10/19 08:59:27;;;;;;;;;13.25;11.00;;;;;18.81;72.22;101848.06;2380393;28;48448;-91
2022/10/19 09:00:46;;;;;;;;;10.50;10.50;;;;;18.80;72.70;101842.81;2388068;28;44739;-91
2022/10/19 09:02:03;;;;;;;;;12.25;11.75;;;;;18.82;72.68;101848.91;2394633;28;46321;-91
2022/10/19 09:03:28;;;;;;;;;7.50;7.00;;;;;18.80;71.48;101842.81;2402613;28;45223;-91
2022/10/19 09:04:48;;;;;;;;;13.25;11.50;;;;;18.78;72.40;101843.75;2395311;28;46414;-90
2022/10/19 09:06:22;;;;;;;;;9.25;8.75;;;;;18.78;72.06;101843.75;2397279;28;44877;-90
2022/10/19 09:07:44;;;;;;;;;10.50;8.00;;;;;18.77;71.79;101843.81;2388933;28;47382;-90
2022/10/19 09:08:56;;;;;;;;;11.00;9.50;;;;;18.75;72.05;101835.06;2388704;28;44859;-90
2022/10/19 09:10:20;;;;;;;;;13.00;10.25;;;;;18.75;71.60;101838.59;2392656;28;47259;-90
2022/10/19 09:11:36;;;;;;;;;14.25;12.25;;;;;18.75;71.78;101833.25;2392714;28;45320;-88
2022/10/19 09:13:09;;;;;;;;;14.00;12.25;;;;;18.76;72.10;101842.13;2394991;28;48000;-89
2022/10/19 09:14:58;;;;;;;;;11.50;10.00;;;;;18.73;72.27;101835.13;2398514;28;45481;-89
2022/10/19 09:16:14;;;;;;;;;11.00;9.75;;;;;18.74;72.14;101828.84;2384681;28;46498;-89
2022/10/19 09:17:25;;;;;;;;;12.50;9.50;;;;;18.75;71.82;101827.94;2386695;28;45461;-88
2022/10/19 09:18:35;;;;;;;;;2.75;2.00;;;;;18.76;71.59;101828.81;2388428;28;45773;-89
2022/10/19 09:19:46;;;;;;;;;11.00;10.50;;;;;18.80;72.07;101832.16;2402870;28;45314;-89
2022/10/19 09:21:11;;;;;;;;;12.75;8.00;;;;;18.78;72.11;101821.59;2402598;28;45389;-88
2022/10/19 09:22:28;;;;;;;;;11.00;10.75;;;;;18.78;71.78;101824.25;2396892;28;44711;-89
2022/10/19 09:24:03;;;;;;;;;9.50;7.50;;;;;18.77;71.41;101812.72;2401868;28;45637;-89
2022/10/19 09:25:18;;;;;;;;;10.25;9.00;;;;;18.75;71.92;101814.63;2388949;28;45239;-89
2022/10/19 09:27:03;;;;;;;;;10.50;10.00;;;;;18.74;71.81;101820.03;2391800;28;47054;-88
2022/10/19 09:28:22;;;;;;;;;10.25;9.25;;;;;18.76;71.88;101810.16;2354975;29;45267;-89
2022/10/19 09:29:41;;;;;;;;;9.75;8.00;;;;;18.76;71.77;101815.50;2394866;28;46407;-89
2022/10/19 09:30:55;;;;;;;;;9.50;7.25;;;;;18.78;71.95;101814.47;2398285;28;45270;-89
2022/10/19 09:32:20;;;;;;;;;14.00;11.00;;;;;18.78;72.18;101811.81;2396123;28;46815;-90
2022/10/19 09:33:38;;;;;;;;;10.25;10.25;;;;;18.80;71.83;101813.50;2402468;28;45192;-89
2022/10/19 09:34:52;;;;;;;;;9.25;9.25;;;;;18.82;72.03;101809.84;2392463;28;47674;-89
2022/10/19 09:36:05;;;;;;;;;13.25;11.75;;;;;18.81;71.86;101810.78;2394393;28;44617;-89
2022/10/19 09:37:18;;;;;;;;;11.50;11.50;;;;;18.83;71.88;101814.22;2392429;28;48753;-89
2022/10/19 09:38:30;;;;;;;;;8.50;7.75;;;;;18.81;71.51;101805.47;2386727;28;45460;-88
2022/10/19 09:39:40;;;;;;;;;11.25;9.25;;;;;18.83;71.96;101808.91;2402363;28;45418;-90
2022/10/19 09:40:51;;;;;;;;;9.75;9.25;;;;;18.84;71.90;101809.78;2392211;28;45240;-90
2022/10/19 09:42:13;;;;;;;;;8.00;7.50;;;;;18.83;71.36;101808.91;2395059;28;45413;-90
2022/10/19 09:43:26;;;;;;;;;11.75;9.75;;;;;18.84;71.40;101810.59;2387266;28;44709;-90
2022/10/19 09:44:37;;;;;;;;;11.50;9.50;;;;;18.86;71.94;101813.22;2395545;28;45578;-89
2022/10/19 09:45:56;;;;;;;;;10.25;10.25;;;;;18.86;72.33;101813.22;2402231;28;45400;-89
2022/10/19 09:47:27;;;;;;;;;10.25;8.75;;;;;18.89;71.84;101815.69;2402466;28;45360;-89
2022/10/19 09:48:48;;;;;;;;;9.25;8.75;;;;;18.87;71.30;101809.59;2400942;28;45199;-90
2022/10/19 09:50:28;;;;;;;;;16.00;9.25;;;;;18.87;71.99;101810.47;2391726;28;46242;-88
2022/10/19 09:51:50;;;;;;;;;11.50;11.50;;;;;18.86;71.96;101808.75;2390269;28;44671;-88
2022/10/19 09:53:04;;;;;;;;;11.25;9.50;;;;;18.88;71.36;101814.88;2393129;28;45237;-89
2022/10/19 09:54:30;;;;;;;;;11.00;9.00;;;;;18.87;72.05;101805.13;2383453;28;45208;-88
2022/10/19 09:55:42;;;;;;;;;10.50;9.25;;;;;18.87;71.94;101798.94;2387655;28;48377;-89
2022/10/19 09:56:55;;;;;;;;;11.25;10.75;;;;;18.86;71.80;101802.56;2392482;28;45527;-89
2022/10/19 09:58:19;;;;;;;;;11.25;11.25;;;;;18.87;71.70;101796.28;2394548;28;45630;-88
2022/10/19 09:59:34;;;;;;;;;15.50;10.75;;;;;18.87;71.34;101805.13;2402036;28;45233;-87
2022/10/19 10:00:50;;;;;;;;;8.00;8.00;;;;;18.87;71.47;101797.16;2402403;28;45598;-87
2022/10/19 10:02:17;;;;;;;;;10.50;9.50;;;;;18.90;71.39;101798.78;2394209;28;45592;-88
2022/10/19 10:03:34;;;;;;;;;11.75;10.50;;;;;18.91;71.67;101797.88;2390686;28;47449;-88
2022/10/19 10:04:46;;;;;;;;;10.50;7.50;;;;;18.92;71.65;101801.34;2396166;28;45386;-87
2022/10/19 10:06:01;;;;;;;;;12.50;9.00;;;;;18.94;71.41;101794.19;2392269;28;47000;-87
2022/10/19 10:07:17;;;;;;;;;6.75;6.75;;;;;18.94;71.72;101796.84;2392825;28;45255;-88
2022/10/19 10:08:35;;;;;;;;;10.75;8.25;;;;;18.96;71.42;101800.28;2399852;28;46785;-87
2022/10/19 10:09:45;;;;;;;;;11.25;9.00;;;;;18.97;71.37;101794.00;2402145;28;45152;-88
2022/10/19 10:11:15;;;;;;;;;8.75;7.75;;;;;18.99;71.72;101795.63;2402332;28;45462;-87
2022/10/19 10:12:25;;;;;;;;;9.25;9.25;;;;;19.01;71.67;101790.25;2392354;28;45355;-87
2022/10/19 10:13:39;;;;;;;;;13.00;9.75;;;;;19.02;71.42;101794.63;2392475;28;45400;-88
2022/10/19 10:14:50;;;;;;;;;9.00;9.00;;;;;19.02;70.89;101791.97;2390018;28;45233;-89
2022/10/19 10:16:04;;;;;;;;;13.25;12.25;;;;;19.06;71.63;101790.84;2392145;28;45706;-90
2022/10/19 10:17:21;;;;;;;;;10.00;8.50;;;;;19.07;71.52;101787.25;2403296;28;44723;-88
2022/10/19 10:18:46;;;;;;;;;10.75;8.50;;;;;19.07;71.58;101779.25;2403695;28;45557;-87
2022/10/19 10:19:56;;;;;;;;;9.25;8.00;;;;;19.11;71.48;101779.97;2402798;28;45416;-90
2022/10/19 10:21:18;;;;;;;;;13.25;11.50;;;;;19.12;71.36;101771.88;2392777;28;48505;-89
2022/10/19 10:22:32;;;;;;;;;11.75;10.25;;;;;19.18;72.03;101781.41;2397723;28;44778;-90
2022/10/19 10:23:56;;;;;;;;;10.50;8.75;;;;;19.20;72.00;101783.97;2403135;28;46374;-88
2022/10/19 10:25:16;;;;;;;;;10.75;9.00;;;;;19.22;71.14;101779.41;2404213;28;45408;-89
2022/10/19 10:26:27;;;;;;;;;9.25;9.25;;;;;19.22;70.98;101779.41;2393546;28;47158;-89
2022/10/19 10:27:38;;;;;;;;;10.50;10.50;;;;;19.24;71.25;101780.19;2387141;28;45256;-88
2022/10/19 10:28:50;;;;;;;;;10.50;8.50;;;;;19.27;71.17;101779.16;2395802;28;45445;-89
2022/10/19 10:30:06;;;;;;;;;8.75;7.75;;;;;19.30;70.94;101773.69;2402687;28;45250;-90
2022/10/19 10:31:26;;;;;;;;;9.50;8.25;;;;;19.31;71.41;101765.59;2393515;28;47896;-89
2022/10/19 10:32:42;;;;;;;;;10.00;10.00;;;;;19.33;71.05;101763.69;2393946;28;45482;-90
2022/10/19 10:34:04;;;;;;;;;10.75;10.25;;;;;19.34;71.05;101759.22;2393041;28;47071;-90
2022/10/19 10:35:29;;;;;;;;;11.00;7.50;;;;;19.36;71.00;101759.16;2388547;28;45380;-88
2022/10/19 10:36:39;;;;;;;;;11.75;9.75;;;;;19.35;70.75;101760.97;2388796;28;48279;-89
2022/10/19 10:37:50;;;;;;;;;9.50;8.50;;;;;19.36;70.25;101754.69;2396020;28;45529;-89
2022/10/19 10:39:07;;;;;;;;;11.75;9.25;;;;;19.37;71.05;101755.53;2392911;28;47189;-89
2022/10/19 10:40:28;;;;;;;;;8.75;8.75;;;;;19.40;70.92;101753.59;2397438;28;45708;-89
2022/10/19 10:41:43;;;;;;;;;10.50;9.75;;;;;19.42;70.89;101746.38;2393467;28;48420;-89
2022/10/19 10:42:56;;;;;;;;;11.00;8.00;;;;;19.43;70.94;101742.72;2393948;28;44656;-89
2022/10/19 10:44:18;;;;;;;;;10.50;10.25;;;;;19.48;70.71;101736.31;2392850;28;48284;-89
2022/10/19 10:45:33;;;;;;;;;11.75;10.75;;;;;19.51;70.09;101736.97;2388337;28;45266;-89
2022/10/19 10:46:54;;;;;;;;;9.50;9.00;;;;;19.54;70.66;101734.16;2387375;28;48548;-89
2022/10/19 10:48:33;;;;;;;;;9.50;8.75;;;;;19.56;69.78;101734.94;2394770;28;44842;-90
2022/10/19 10:49:59;;;;;;;;;9.50;9.00;;;;;19.60;70.52;101734.75;2389448;28;45693;-89
2022/10/19 10:51:19;;;;;;;;;10.50;7.75;;;;;19.63;70.01;101737.28;2403746;28;44597;-89
2022/10/19 10:52:30;;;;;;;;;9.50;9.50;;;;;19.63;70.33;101731.94;2393283;28;47429;-90
2022/10/19 10:53:42;;;;;;;;;7.00;5.00;;;;;19.65;70.05;101732.69;2396318;28;45295;-90
2022/10/19 10:55:09;;;;;;;;;11.50;10.00;;;;;19.68;70.12;101733.38;2399895;28;48121;-90
2022/10/19 10:56:26;;;;;;;;;8.50;7.25;;;;;19.67;70.01;101723.69;2391269;28;44607;-90
2022/10/19 10:57:45;;;;;;;;;12.25;10.25;;;;;19.71;70.18;101726.16;2393030;28;47250;-89
2022/10/19 10:59:12;;;;;;;;;11.50;11.25;;;;;19.73;70.08;101717.09;2387394;28;45200;-89
2022/10/19 11:00:23;;;;;;;;;9.75;8.75;;;;;19.75;69.05;101723.25;2393869;28;45368;-90
2022/10/19 11:01:40;;;;;;;;;8.00;7.00;;;;;19.79;68.92;101726.59;2392164;28;45564;-90
2022/10/19 11:03:00;;;;;;;;;11.50;8.25;;;;;19.78;69.13;101717.72;2400361;28;46479;-89
2022/10/19 11:04:20;;;;;;;;;8.75;6.75;;;;;19.81;69.72;101714.00;2403855;28;45230;-88
2022/10/19 11:05:36;;;;;;;;;9.75;9.75;;;;;19.86;69.25;101727.09;2393371;28;48684;-91
2022/10/19 11:06:55;;;;;;;;;9.00;9.00;;;;;19.85;68.96;101715.53;2393713;28;44761;-88
2022/10/19 11:08:19;;;;;;;;;8.00;8.00;;;;;19.89;69.33;101711.78;2400600;28;45332;-89
2022/10/19 11:09:41;;;;;;;;;10.50;9.75;;;;;19.94;69.31;101710.66;2402697;28;45429;-90
2022/10/19 11:10:57;;;;;;;;;13.50;11.00;;;;;19.95;69.58;101710.53;2399930;28;46363;-89
2022/10/19 11:12:12;;;;;;;;;10.75;10.00;;;;;19.97;69.80;101703.34;2403516;28;44675;-88
2022/10/19 11:13:31;;;;;;;;;7.50;7.25;;;;;19.99;68.99;101701.44;2392697;28;47394;-89
2022/10/19 11:14:49;;;;;;;;;14.75;11.00;;;;;19.99;69.52;101701.44;2397473;28;45475;-89
2022/10/19 11:16:08;;;;;;;;;9.25;9.25;;;;;20.05;69.27;101702.88;2402927;28;45505;-89
2022/10/19 11:17:25;;;;;;;;;13.50;12.00;;;;;20.07;69.40;101692.13;2392820;28;45254;-91
2022/10/19 11:18:47;;;;;;;;;10.25;8.75;;;;;20.09;69.33;101687.56;2386968;28;47188;-90
2022/10/19 11:19:58;;;;;;;;;13.25;10.00;;;;;20.12;69.22;101688.25;2397864;28;44725;-89
2022/10/19 11:21:13;;;;;;;;;9.25;8.00;;;;;20.18;67.95;101686.16;2393077;28;46358;-91
2022/10/19 11:22:49;;;;;;;;;9.25;8.00;;;;;20.18;68.87;101687.03;2396947;28;45264;-91
2022/10/19 11:24:24;;;;;;;;;10.00;10.00;;;;;20.22;68.92;101680.56;2402449;28;46765;-89
2022/10/19 11:25:48;;;;;;;;;9.50;8.50;;;;;20.26;68.27;101678.56;2392819;28;45402;-89
2022/10/19 11:27:01;;;;;;;;;10.75;9.00;;;;;20.29;68.78;101677.53;2388043;28;47422;-89
2022/10/19 11:28:34;;;;;;;;;12.25;10.00;;;;;20.27;68.18;101664.28;2392207;28;45432;-89
2022/10/19 11:29:44;;;;;;;;;8.75;7.00;;;;;20.31;68.13;101667.63;2391637;28;46697;-88
2022/10/19 11:31:24;;;;;;;;;11.75;9.75;;;;;20.35;68.49;101655.81;2403562;28;44775;-89
2022/10/19 11:32:43;;;;;;;;;9.25;9.00;;;;;20.37;67.89;101647.72;2400111;28;45392;-89
2022/10/19 11:34:02;;;;;;;;;10.75;10.25;;;;;20.38;68.96;101646.75;2403249;28;45219;-89
2022/10/19 11:35:24;;;;;;;;;11.75;9.00;;;;;20.39;67.97;101644.00;2392932;28;46402;-89
2022/10/19 11:36:55;;;;;;;;;9.00;8.25;;;;;20.40;68.23;101640.38;2395297;28;45194;-90
2022/10/19 11:38:34;;;;;;;;;10.00;9.75;;;;;20.43;68.51;101647.34;2391559;28;48130;-90